Terminal Aerodrome Forecast
Issued by NWS

Current Version | Previous Version | Text Only | Print | Product List | Glossary On
Versions: 1 2 3 4 5 6 7 8 9 10 11 12 13 14 15 16 17 18 19 20 21 22 23 24 25 26 27 28 29 30 31 32 33 34 35 36 37 38 39 40 41 42 43 44 45 46 47 48 49 50
000
FTUS43 KLOT 231921 AAA
TAFGYY
TAF AMD
KGYY 231921Z 2319/2418 04008KT 6SM HZ BKN035 BKN250
     FM232200 07006KT 6SM HZ BKN040 BKN250
     FM240200 12005KT 6SM BR SCT050 BKN250
     FM241100 18009KT 3SM TSRA OVC025CB
     FM241400 21012G19KT P6SM SCT040=

USA.gov is the U.S. government's official web portal to all federal, state and local government web resources and services.